Time;durP1;ratioP1;P1;durP2;ratioP2;P2;SDS_P1;SDS_P2;PMS_P1;PMS_P2;Temp;Humidity;BMP_temperature;BMP_pressure;BME280_temperature;BME280_humidity;BME280_pressure;Samples;Min_cycle;Max_cycle;Signal;HPM_P1;HPM_P2
2022/12/15 00:39:58;;;;;;;;;;;;;;;;;;5051528;28;20288;-48
2022/12/15 00:42:24;;;;;;;;;;;;;;;;;;5051941;28;19924;-48
2022/12/15 00:44:50;;;;;;;;;;;;;;;;;;5060684;28;19916;-47
2022/12/15 00:47:16;;;;;;;;;;;;;;;;;;5054564;28;20258;-48
2022/12/15 01:22:38;;;;;;;;;;;;;;;;;;5067636;28;20373;-47
2022/12/15 01:25:04;;;;;;;;;;;;;;;;;;5058895;28;20010;-47
2022/12/15 01:27:30;;;;;;;;;;;;;;;;;;5074777;28;20360;-47
2022/12/15 01:29:56;;;;;;;;;;;;;;;;;;5072001;28;19909;-48
2022/12/15 01:32:21;;;;;;;;;;;;;;;;;;5073765;28;19912;-48
2022/12/15 01:34:47;;;;;;;;;;;;;;;;;;5060110;28;19912;-48
2022/12/15 01:37:13;;;;;;;;;;;;;;;;;;5063051;28;20392;-48
2022/12/15 01:42:24;;;;;;;;;;;;;;;;;;5054380;28;20015;-47
2022/12/15 01:44:50;;;;;;;;;;;;;;;;;;5071990;28;19954;-48
2022/12/15 01:47:16;;;;;;;;;;;;;;;;;;5071977;28;19951;-48
2022/12/15 01:49:42;;;;;;;;;;;;;;;;;;5072309;28;20089;-48
2022/12/15 01:52:08;;;;;;;;;;;;;;;;;;5057164;28;19986;-47
2022/12/15 01:54:34;;;;;;;;;;;;;;;;;;5069065;28;20303;-47
2022/12/15 01:57:00;;;;;;;;;;;;;;;;;;5094865;22;20297;-52
2022/12/15 01:59:26;;;;;;;;;;;;;;;;;;5033600;28;19916;-50
2022/12/15 02:01:51;;;;;;;;;;;;;;;;;;5046847;28;19913;-53
2022/12/15 02:04:17;;;;;;;;;;;;;;;;;;5040838;28;19913;-49
2022/12/15 02:06:43;;;;;;;;;;;;;;;;;;5035079;28;19971;-53
2022/12/15 02:09:09;;;;;;;;;;;;;;;;;;5038407;28;19919;-52
2022/12/15 02:11:35;;;;;;;;;;;;;;;;;;5053489;28;19919;-53
2022/12/15 02:14:01;;;;;;;;;;;;;;;;;;5046874;28;19920;-51
2022/12/15 02:16:27;;;;;;;;;;;;;;;;;;5019656;28;19920;-50
2022/12/15 02:18:53;;;;;;;;;;;;;;;;;;5014622;28;19910;-53
2022/12/15 02:21:19;;;;;;;;;;;;;;;;;;5033256;28;19962;-51
2022/12/15 02:23:45;;;;;;;;;;;;;;;;;;5033700;28;19935;-50
2022/12/15 02:26:11;;;;;;;;;;;;;;;;;;5033565;28;20396;-51
2022/12/15 02:28:36;;;;;;;;;;;;;;;;;;5033456;28;19916;-50
2022/12/15 02:33:47;;;;;;;;;;;;;;;;;;5033544;28;19916;-52
2022/12/15 02:36:13;;;;;;;;;;;;;;;;;;5033318;28;19921;-52
2022/12/15 02:38:40;;;;;;;;;;;;;;;;;;5033243;28;20381;-50
2022/12/15 02:41:06;;;;;;;;;;;;;;;;;;5033513;28;20364;-51
2022/12/15 02:43:32;;;;;;;;;;;;;;;;;;5033471;28;19944;-53
2022/12/15 02:46:00;;;;;;;;;;;;;;;;;;5036460;28;20424;-52
2022/12/15 02:48:26;;;;;;;;;;;;;;;;;;5040916;28;20358;-50
2022/12/15 02:50:52;;;;;;;;;;;;;;;;;;5041769;28;19912;-53
2022/12/15 02:53:20;;;;;;;;;;;6.60;84.70;;;;;;5034129;28;19920;-51
2022/12/15 02:55:47;;;;;;;;;;;;;;;;;;5032821;28;19917;-51
2022/12/15 02:58:13;;;;;;;;;;;;;;;;;;5038268;28;19912;-51
2022/12/15 03:00:39;;;;;;;;;;;;;;;;;;5046471;28;19921;-53
2022/12/15 03:03:05;;;;;;;;;;;;;;;;;;5052582;28;20566;-50
2022/12/15 03:05:30;;;;;;;;;;;;;;;;;;5046598;28;19913;-51
2022/12/15 03:07:56;;;;;;;;;;;;;;;;;;5034007;28;20343;-50
2022/12/15 03:10:22;;;;;;;;;;;;;;;;;;5033643;28;19913;-53
2022/12/15 03:12:49;;;;;;;;;;;;;;;;;;5032972;28;19971;-53
2022/12/15 03:15:15;;;;;;;;;;;;;;;;;;5032961;28;19967;-51
2022/12/15 03:17:41;;;;;;;;;;;;;;;;;;5042514;28;19913;-53
2022/12/15 03:20:07;;;;;;;;;;;;;;;;;;5032663;28;19913;-54
2022/12/15 03:22:33;;;;;;;;;;;;;;;;;;5032552;28;19913;-53
2022/12/15 03:24:59;;;;;;;;;;;;;;;;;;5031689;28;19917;-50
2022/12/15 03:27:25;;;;;;;;;;;;;;;;;;5032664;28;19913;-55
2022/12/15 03:29:51;;;;;;;;;;;;;;;;;;5032569;28;19909;-54
2022/12/15 03:32:17;;;;;;;;;;;;;;;;;;5032482;28;20350;-54
2022/12/15 03:34:44;;;;;;;;;;;;;;;;;;5032082;28;20007;-54
2022/12/15 03:37:09;;;;;;;;;;;;;;;;;;5032520;28;19936;-53
2022/12/15 03:39:35;;;;;;;;;;;;;;;;;;5031062;28;20020;-49
2022/12/15 03:42:01;;;;;;;;;;;;;;;;;;5032431;28;19916;-53
2022/12/15 03:44:27;;;;;;;;;;;;;;;;;;5032428;28;20289;-49
2022/12/15 03:46:54;;;;;;;;;;;;;;;;;;5032220;28;19918;-54
2022/12/15 03:49:20;;;;;;;;;;;;;;;;;;5050295;28;19913;-51
2022/12/15 03:51:46;;;;;;;;;;;;;;;;;;5037872;28;19920;-52
2022/12/15 03:54:12;;;;;;;;;;;;;;;;;;5040917;28;20495;-51
2022/12/15 03:56:38;;;;;;;;;;;;;;;;;;5036046;28;19917;-54
2022/12/15 03:59:04;;;;;;;;;;;;;;;;;;5032145;28;19910;-54
2022/12/15 04:01:29;;;;;;;;;;;;;;;;;;5033505;28;19913;-51
2022/12/15 04:03:55;;;;;;;;;;;;;;;;;;5044587;28;20369;-55
2022/12/15 04:06:21;;;;;;;;;;;;;;;;;;5042926;28;19915;-50
2022/12/15 04:08:47;;;;;;;;;;;;;;;;;;5037054;28;19913;-52
2022/12/15 04:11:13;;;;;;;;;;;;;;;;;;5039918;28;19956;-54
2022/12/15 04:13:39;;;;;;;;;;;;;;;;;;5051732;28;20289;-52
2022/12/15 04:16:05;;;;;;;;;;;;;;;;;;5042554;28;20062;-53
2022/12/15 04:18:31;;;;;;;;;;;;;;;;;;5031732;28;20003;-52
2022/12/15 04:20:57;;;;;;;;;;;;;;;;;;5031970;28;19962;-53
2022/12/15 04:23:23;;;;;;;;;;;;;;;;;;5031696;28;20302;-52
2022/12/15 05:31:51;;;;;;;;;;;;;;;;;;5054667;28;19920;-52
2022/12/15 05:34:17;;;;;;;;;;;;;;;;;;5054559;28;19912;-49
2022/12/15 05:36:42;;;;;;;;;;;;;;;;;;5054500;28;19913;-48
2022/12/15 05:39:08;;;;;;;;;;;;;;;;;;5053198;28;19909;-50
2022/12/15 05:41:34;;;;;;;;;;;;;;;;;;5053282;28;19919;-52
2022/12/15 05:44:00;;;;;;;;;;;;;;;;;;5054365;28;20284;-53
2022/12/15 05:46:26;;;;;;;;;;;;;;;;;;5054289;28;20364;-52
2022/12/15 05:48:52;;;;;;;;;;;;;;;;;;5054308;28;19909;-51
2022/12/15 05:51:18;;;;;;;;;;;;;;;;;;5054435;28;19915;-50
2022/12/15 05:53:44;;;;;;;;;;;5.10;92.60;;;;;;5053086;28;19999;-52
2022/12/15 05:56:10;;;;;;;;;;;;;;;;;;5053268;28;20396;-51
2022/12/15 05:58:35;;;;;;;;;;;;;;;;;;5053943;28;20285;-54
2022/12/15 06:01:01;;;;;;;;;;;;;;;;;;5054076;28;19909;-50
2022/12/15 06:03:27;;;;;;;;;;;;;;;;;;5054175;28;19909;-50
2022/12/15 06:05:53;;;;;;;;;;;;;;;;;;5054047;28;19908;-49
2022/12/15 06:08:19;;;;;;;;;;;;;;;;;;5053791;28;19967;-49
2022/12/15 06:10:45;;;;;;;;;;;;;;;;;;5053905;28;20002;-52
2022/12/15 06:13:11;;;;;;;;;;;;;;;;;;5053842;28;19994;-49
2022/12/15 06:15:37;;;;;;;;;;;;;;;;;;5053826;28;19920;-51
2022/12/15 06:18:03;;;;;;;;;;;5.30;93.00;;;;;;5053837;28;19909;-53
2022/12/15 06:20:29;;;;;;;;;;;;;;;;;;5052171;28;19909;-54
2022/12/15 06:22:55;;;;;;;;;;;;;;;;;;5053602;28;19959;-51
2022/12/15 06:25:20;;;;;;;;;;;5.20;92.80;;;;;;5053685;28;20297;-52
2022/12/15 06:27:46;;;;;;;;;;;5.30;92.90;;;;;;5053585;28;20000;-52
2022/12/15 06:30:12;;;;;;;;;;;;;;;;;;5053490;28;19909;-51
2022/12/15 06:32:38;;;;;;;;;;;;;;;;;;5052337;28;19909;-52
2022/12/15 06:35:04;;;;;;;;;;;;;;;;;;5053435;28;19909;-51
2022/12/15 06:37:30;;;;;;;;;;;;;;;;;;5053438;28;19909;-49
2022/12/15 06:39:55;;;;;;;;;;;;;;;;;;5053409;28;19940;-50
2022/12/15 06:42:21;;;;;;;;;;;;;;;;;;5053784;28;19913;-50
2022/12/15 06:44:47;;;;;;;;;;;;;;;;;;5053354;28;20361;-52
2022/12/15 06:47:13;;;;;;;;;;;;;;;;;;5053244;28;20042;-52
2022/12/15 06:49:39;;;;;;;;;;;;;;;;;;5053104;28;19915;-51
2022/12/15 06:52:05;;;;;;;;;;;;;;;;;;5053180;28;19913;-49
2022/12/15 06:54:30;;;;;;;;;;;5.30;92.90;;;;;;5053125;28;20412;-54
2022/12/15 06:56:56;;;;;;;;;;;5.40;93.40;;;;;;5052682;28;20015;-50
2022/12/15 06:59:22;;;;;;;;;;;5.40;93.00;;;;;;5052783;28;19948;-50
2022/12/15 07:01:47;;;;;;;;;;;5.50;93.10;;;;;;5053034;28;19963;-53
2022/12/15 07:04:13;;;;;;;;;;;;;;;;;;5052890;28;19913;-52
2022/12/15 07:06:39;;;;;;;;;;;;;;;;;;5052787;28;19913;-51
2022/12/15 07:09:06;;;;;;;;;;;;;;;;;;5052940;28;19912;-51
2022/12/15 07:11:32;;;;;;;;;;;;;;;;;;5052975;28;19916;-51
2022/12/15 07:13:58;;;;;;;;;;;;;;;;;;5051647;28;19908;-53
2022/12/15 07:16:24;;;;;;;;;;;;;;;;;;5052527;28;20384;-49
2022/12/15 07:18:50;;;;;;;;;;;;;;;;;;5052606;28;19963;-49
2022/12/15 07:21:16;;;;;;;;;;;;;;;;;;5052582;28;19995;-51
2022/12/15 07:23:42;;;;;;;;;;;;;;;;;;5052637;28;20297;-53
2022/12/15 07:26:08;;;;;;;;;;;;;;;;;;5052527;28;19913;-50
2022/12/15 07:28:34;;;;;;;;;;;;;;;;;;5048088;28;19986;-49
2022/12/15 07:31:01;;;;;;;;;;;;;;;;;;5031701;28;20287;-50
2022/12/15 07:33:27;;;;;;;;;;;;;;;;;;5032641;28;19920;-52
2022/12/15 07:35:53;;;;;;;;;;;;;;;;;;5031701;28;20300;-50
2022/12/15 07:38:21;;;;;;;;;;;;;;;;;;5031736;28;20477;-49
2022/12/15 07:40:48;;;;;;;;;;;;;;;;;;5032309;28;20285;-48
2022/12/15 07:43:13;;;;;;;;;;;;;;;;;;5032500;28;19916;-51
2022/12/15 07:45:39;;;;;;;;;;;;;;;;;;5032588;28;19913;-50
2022/12/15 07:48:05;;;;;;;;;;;;;;;;;;5032427;28;20369;-53
2022/12/15 07:50:31;;;;;;;;;;;;;;;;;;5032273;28;19963;-54
2022/12/15 07:52:57;;;;;;;;;;;;;;;;;;5032499;28;19916;-51
2022/12/15 07:58:00;;;;;;;;;;;;;;;;;;5050264;28;19925;-46
2022/12/15 08:00:27;;;;;;;;;;;;;;;;;;5033960;28;19916;-47
2022/12/15 08:02:53;;;;;;;;;;;;;;;;;;5052142;28;19909;-54
2022/12/15 08:05:19;;;;;;;;;;;;;;;;;;5052080;28;19917;-55
2022/12/15 08:07:45;;;;;;;;;;;;;;;;;;5052034;28;19909;-54
2022/12/15 08:10:11;;;;;;;;;;;;;;;;;;5052021;28;19962;-53
2022/12/15 08:12:37;;;;;;;;;;;;;;;;;;5052092;28;19913;-52
2022/12/15 08:15:03;;;;;;;;;;;;;;;;;;5052005;28;19909;-54
2022/12/15 08:17:29;;;;;;;;;;;;;;;;;;5052317;28;20299;-54
2022/12/15 08:19:55;;;;;;;;;;;;;;;;;;5053345;28;19912;-52
2022/12/15 08:22:21;;;;;;;;;;;;;;;;;;5056072;28;19944;-57
2022/12/15 08:24:47;;;;;;;;;;;;;;;;;;5056037;28;19952;-54
2022/12/15 08:27:13;;;;;;;;;;;;;;;;;;5055571;28;19909;-52
2022/12/15 08:29:40;;;;;;;;;;;;;;;;;;5055818;28;19919;-53
2022/12/15 08:32:06;;;;;;;;;;;;;;;;;;5055861;28;19915;-53
2022/12/15 08:34:32;;;;;;;;;;;;;;;;;;5055881;28;20381;-51
2022/12/15 08:36:58;;;;;;;;;;;;;;;;;;5055471;28;19935;-55
2022/12/15 08:39:24;;;;;;;;;;;;;;;;;;5054186;28;19920;-52
2022/12/15 08:41:50;;;;;;;;;;;;;;;;;;5055083;28;19909;-51
2022/12/15 08:44:16;;;;;;;;;;;;;;;;;;5055659;28;20273;-52
2022/12/15 08:46:42;;;;;;;;;;;;;;;;;;5055556;28;20347;-52
2022/12/15 08:49:08;;;;;;;;;;;;;;;;;;5055326;28;19913;-53
2022/12/15 08:51:34;;;;;;;;;;;;;;;;;;5055455;28;19920;-54
2022/12/15 08:54:00;;;;;;;;;;;;;;;;;;5037676;28;20301;-54
2022/12/15 08:56:26;;;;;;;;;;;;;;;;;;5055157;28;19917;-52
2022/12/15 08:58:52;;;;;;;;;;;;;;;;;;5034213;28;19921;-53
2022/12/15 09:01:17;;;;;;;;;;;;;;;;;;5042409;28;20012;-55
2022/12/15 09:03:43;;;;;;;;;;;;;;;;;;5035449;28;20020;-52
2022/12/15 09:06:09;;;;;;;;;;;;;;;;;;5035217;28;19943;-54
2022/12/15 09:08:35;;;;;;;;;;;;;;;;;;5035066;28;20449;-56
2022/12/15 09:11:01;;;;;;;;;;;;;;;;;;5035292;28;19916;-57
2022/12/15 09:13:27;;;;;;;;;;;;;;;;;;5035230;28;19915;-57
2022/12/15 09:15:53;;;;;;;;;;;;;;;;;;5035032;28;19912;-56
2022/12/15 09:18:19;;;;;;;;;;;;;;;;;;5034937;28;19929;-56
2022/12/15 09:20:45;;;;;;;;;;;;;;;;;;5034967;28;20003;-53
2022/12/15 09:23:11;;;;;;;;;;;;;;;;;;5040266;28;19923;-55
2022/12/15 09:25:37;;;;;;;;;;;;;;;;;;5034840;28;19910;-52
2022/12/15 09:28:02;;;;;;;;;;;;;;;;;;5035021;28;19916;-54
2022/12/15 09:30:28;;;;;;;;;;;;;;;;;;5016588;28;19916;-57
2022/12/15 09:32:54;;;;;;;;;;;;;;;;;;5036913;28;20306;-56
2022/12/15 09:35:20;;;;;;;;;;;;;;;;;;5051699;28;20377;-53
2022/12/15 09:37:46;;;;;;;;;;;;;;;;;;5030479;28;19913;-55
2022/12/15 09:40:12;;;;;;;;;;;;;;;;;;5054395;28;19915;-56
2022/12/15 09:42:38;;;;;;;;;;;;;;;;;;5054885;28;19939;-57
2022/12/15 09:45:04;;;;;;;;;;;;;;;;;;5054517;28;19920;-55
2022/12/15 09:47:30;;;;;;;;;;;;;;;;;;5054359;28;19912;-52
2022/12/15 09:49:56;;;;;;;;;;;;;;;;;;5054283;28;20347;-55
2022/12/15 09:52:22;;;;;;;;;;;;;;;;;;5051031;28;20392;-55
2022/12/15 09:54:48;;;;;;;;;;;;;;;;;;5054331;28;19962;-57
2022/12/15 09:57:13;;;;;;;;;;;;;;;;;;5054022;28;19920;-54
2022/12/15 09:59:39;;;;;;;;;;;;;;;;;;5040620;28;20329;-53
2022/12/15 10:02:05;;;;;;;;;;;;;;;;;;5034301;28;19916;-54
2022/12/15 10:04:31;;;;;;;;;;;;;;;;;;5034130;28;19905;-56
2022/12/15 10:06:57;;;;;;;;;;;;;;;;;;5034052;28;19909;-54
2022/12/15 10:09:23;;;;;;;;;;;;;;;;;;5033992;28;19913;-54
2022/12/15 10:11:49;;;;;;;;;;;;;;;;;;5033967;28;19917;-54
2022/12/15 10:14:15;;;;;;;;;;;;;;;;;;5033350;28;19905;-56
2022/12/15 10:16:41;;;;;;;;;;;;;;;;;;5032776;28;20008;-52
2022/12/15 10:19:07;;;;;;;;;;;;;;;;;;5033491;28;20377;-58
2022/12/15 10:21:33;;;;;;;;;;;;;;;;;;5033738;28;19916;-56
2022/12/15 10:23:59;;;;;;;;;;;;;;;;;;5033740;28;20450;-57
2022/12/15 10:26:25;;;;;;;;;;;;;;;;;;5033660;28;19909;-58
2022/12/15 10:28:51;;;;;;;;;;;;;;;;;;5033493;28;20101;-58
2022/12/15 10:31:17;;;;;;;;;;;;;;;;;;5015942;28;20000;-58
2022/12/15 10:33:44;;;;;;;;;;;;;;;;;;5033675;28;19952;-57
2022/12/15 10:36:10;;;;;;;;;;;;;;;;;;5033564;28;20008;-58
2022/12/15 10:38:41;;;;;;;;;;;;;;;;;;5033237;28;19959;-54
2022/12/15 10:41:07;;;;;;;;;;;;;;;;;;5033487;28;19910;-58
2022/12/15 10:43:34;;;;;;;;;;;;;;;;;;5033039;28;19909;-58
2022/12/15 10:46:00;;;;;;;;;;;;;;;;;;5033278;28;19909;-59
2022/12/15 10:48:26;;;;;;;;;;;;;;;;;;5033101;28;19936;-59
2022/12/15 10:50:52;;;;;;;;;;;;;;;;;;5033260;28;20378;-57
2022/12/15 10:53:18;;;;;;;;;;;;;;;;;;5033272;28;19909;-58
2022/12/15 10:55:44;;;;;;;;;;;;;;;;;;5032868;28;19917;-59
2022/12/15 10:58:10;;;;;;;;;;;;;;;;;;5032857;28;19913;-59
2022/12/15 11:00:36;;;;;;;;;;;;;;;;;;5032953;28;20369;-58
2022/12/15 11:03:02;;;;;;;;;;;;;;;;;;5033014;28;19905;-58
2022/12/15 11:05:27;;;;;;;;;;;;;;;;;;5032863;28;19917;-57
2022/12/15 11:07:53;;;;;;;;;;;;;;;;;;5032891;28;19939;-58
2022/12/15 11:10:19;;;;;;;;;;;;;;;;;;5032846;28;19927;-57
2022/12/15 11:12:51;;;;;;;;;;;;;;;;;;5032741;28;19999;-52
2022/12/15 11:15:17;;;;;;;;;;;;;;;;;;5032767;28;19955;-54
2022/12/15 11:17:43;;;;;;;;;;;;;;;;;;5032930;28;19913;-52
2022/12/15 11:20:10;;;;;;;;;;;;;;;;;;5032901;28;19909;-51
2022/12/15 11:22:35;;;;;;;;;;;;;;;;;;5032701;28;19971;-56
2022/12/15 11:25:01;;;;;;;;;;;;;;;;;;5032767;28;20373;-52
2022/12/15 11:27:27;;;;;;;;;;;;;;;;;;5032646;28;20310;-52
2022/12/15 11:29:54;;;;;;;;;;;;;;;;;;5032424;28;19909;-53
2022/12/15 11:32:20;;;;;;;;;;;;;;;;;;5032560;28;19909;-53
2022/12/15 11:34:46;;;;;;;;;;;;;;;;;;5032637;28;19909;-52
2022/12/15 11:37:11;;;;;;;;;;;;;;;;;;5032357;28;19914;-56
2022/12/15 11:39:37;;;;;;;;;;;;;;;;;;5032367;28;20361;-52
2022/12/15 11:42:03;;;;;;;;;;;;;;;;;;5032639;28;19909;-53
2022/12/15 11:44:30;;;;;;;;;;;;;;;;;;5014612;28;19909;-52
2022/12/15 11:46:55;;;;;;;;;;;;;;;;;;5039438;28;20504;-54
2022/12/15 11:49:21;;;;;;;;;;;;;;;;;;5048893;28;19967;-51
2022/12/15 11:51:47;;;;;;;;;;;;;;;;;;5051849;28;19962;-55
2022/12/15 11:54:14;;;;;;;;;;;;;;;;;;5050347;28;19916;-54
2022/12/15 11:56:40;;;;;;;;;;;;;;;;;;5045725;28;20011;-53
2022/12/15 11:59:06;;;;;;;;;;;;;;;;;;5041812;28;19952;-52
2022/12/15 12:01:31;;;;;;;;;;;;;;;;;;5040951;28;20122;-51
2022/12/15 12:03:57;;;;;;;;;;;;;;;;;;5041052;28;20409;-51
2022/12/15 12:06:23;;;;;;;;;;;;;;;;;;5043071;28;19913;-58
2022/12/15 12:08:49;;;;;;;;;;;;;;;;;;5045843;28;20011;-55
2022/12/15 12:11:15;;;;;;;;;;;;;;;;;;5042379;28;19982;-53
2022/12/15 12:13:41;;;;;;;;;;;;;;;;;;5050442;28;19909;-56
2022/12/15 12:16:08;;;;;;;;;;;;;;;;;;5051751;28;19912;-57
2022/12/15 12:18:34;;;;;;;;;;;;;;;;;;5051352;28;20087;-57
2022/12/15 12:21:00;;;;;;;;;;;;;;;;;;5036949;28;19920;-54
2022/12/15 12:23:26;;;;;;;;;;;;;;;;;;5040533;28;19913;-55
2022/12/15 12:25:51;;;;;;;;;;;;;;;;;;5041161;28;20362;-53
2022/12/15 12:28:17;;;;;;;;;;;;;;;;;;5027628;28;19909;-52
2022/12/15 12:30:43;;;;;;;;;;;;;;;;;;5045286;28;19909;-55
2022/12/15 12:33:09;;;;;;;;;;;;;;;;;;5051829;28;20011;-54
2022/12/15 12:35:36;;;;;;;;;;;;;;;;;;5051674;28;19948;-54
2022/12/15 12:38:02;;;;;;;;;;;;;;;;;;5049126;28;19932;-52
2022/12/15 12:40:28;;;;;;;;;;;;;;;;;;5027480;28;20362;-52
2022/12/15 12:42:54;;;;;;;;;;;;;;;;;;5051706;28;20344;-54
2022/12/15 12:45:20;;;;;;;;;;;;;;;;;;5051705;28;19916;-55
2022/12/15 12:47:48;;;;;;;;;;;;;;;;;;5051630;28;20297;-52
2022/12/15 12:50:15;;;;;;;;;;;;;;;;;;5051525;28;19912;-53
2022/12/15 12:52:41;;;;;;;;;;;;;;;;;;5051624;28;19908;-52
2022/12/15 12:55:07;;;;;;;;;;;;;;;;;;5034067;28;20288;-54
2022/12/15 12:57:33;;;;;;;;;;;;;;;;;;5051294;28;19916;-52
2022/12/15 12:59:59;;;;;;;;;;;;;;;;;;5051549;28;20007;-53
2022/12/15 13:02:25;;;;;;;;;;;;;;;;;;5051624;28;20362;-55
2022/12/15 13:04:51;;;;;;;;;;;;;;;;;;5046750;28;20377;-52
2022/12/15 13:07:17;;;;;;;;;;;;;;;;;;5054297;28;19912;-53
2022/12/15 13:09:43;;;;;;;;;;;;;;;;;;5041747;28;20324;-54
2022/12/15 13:12:09;;;;;;;;;;;;;;;;;;5054292;28;19913;-54
2022/12/15 13:14:35;;;;;;;;;;;;;;;;;;5044937;28;19913;-56
2022/12/15 13:17:01;;;;;;;;;;;;;;;;;;5051087;28;19916;-52
2022/12/15 13:19:27;;;;;;;;;;;;;;;;;;5054499;28;19916;-55
2022/12/15 13:21:53;;;;;;;;;;;;;;;;;;5054568;28;19912;-52
2022/12/15 13:24:19;;;;;;;;;;;;;;;;;;5054430;28;19912;-57
2022/12/15 13:26:44;;;;;;;;;;;;;;;;;;5048607;28;20312;-54
2022/12/15 13:29:10;;;;;;;;;;;;;;;;;;5054609;28;19991;-57
2022/12/15 13:31:36;;;;;;;;;;;;;;;;;;5052507;28;20022;-56
2022/12/15 13:34:02;;;;;;;;;;;;;;;;;;5045376;28;19919;-56
2022/12/15 13:36:28;;;;;;;;;;;;;;;;;;5036403;28;19917;-55
2022/12/15 13:38:54;;;;;;;;;;;;;;;;;;5047324;28;20324;-56
2022/12/15 13:41:20;;;;;;;;;;;;;;;;;;5054607;28;19913;-53
2022/12/15 13:43:46;;;;;;;;;;;;;;;;;;5054034;28;19913;-53
2022/12/15 13:46:12;;;;;;;;;;;;;;;;;;5054109;28;20262;-53
2022/12/15 13:48:38;;;;;;;;;;;;;;;;;;5053736;28;20373;-56
2022/12/15 13:51:04;;;;;;;;;;;;;;;;;;5046192;28;19963;-55
2022/12/15 13:53:30;;;;;;;;;;;;;;;;;;5049444;28;20337;-56
2022/12/15 13:55:56;;;;;;;;;;;;;;;;;;5053989;28;19999;-56
2022/12/15 13:58:22;;;;;;;;;;;;;;;;;;5053568;28;19951;-55
2022/12/15 14:00:48;;;;;;;;;;;;;;;;;;5035895;28;19952;-52
2022/12/15 14:03:14;;;;;;;;;;;;;;;;;;5054231;28;19936;-54
2022/12/15 14:05:41;;;;;;;;;;;;;;;;;;5035981;28;19913;-57
2022/12/15 14:08:07;;;;;;;;;;;;;;;;;;5053613;28;20343;-48
2022/12/15 14:10:33;;;;;;;;;;;;;;;;;;5053846;28;19912;-54
2022/12/15 14:12:59;;;;;;;;;;;;;;;;;;5053625;28;20015;-58
2022/12/15 14:15:25;;;;;;;;;;;;;;;;;;5051062;28;20278;-55
2022/12/15 14:17:51;;;;;;;;;;;;;;;;;;5045019;28;19913;-56
2022/12/15 14:20:17;;;;;;;;;;;;;;;;;;5040119;28;19912;-56
2022/12/15 14:22:43;;;;;;;;;;;;;;;;;;5034788;28;20551;-57
2022/12/15 14:25:09;;;;;;;;;;;;;;;;;;5045143;28;19913;-55
2022/12/15 14:27:35;;;;;;;;;;;;;;;;;;5053414;28;19913;-53
2022/12/15 14:30:01;;;;;;;;;;;;;;;;;;5053503;28;19916;-57
2022/12/15 14:32:26;;;;;;;;;;;;;;;;;;5043435;28;19917;-57
2022/12/15 14:34:52;;;;;;;;;;;;;;;;;;5053531;28;19913;-58
2022/12/15 14:37:18;;;;;;;;;;;;;;;;;;5053072;28;20312;-53
2022/12/15 14:39:47;;;;;;;;;;;;;;;;;;5053110;28;20380;-56
2022/12/15 14:42:13;;;;;;;;;;;;;;;;;;5050205;28;19913;-57
2022/12/15 14:44:39;;;;;;;;;;;;;;;;;;5035153;28;19919;-56
2022/12/15 14:47:05;;;;;;;;;;;;;;;;;;5045153;28;19913;-55
2022/12/15 14:49:31;;;;;;;;;;;;;;;;;;5050811;28;19952;-54
2022/12/15 14:51:57;;;;;;;;;;;;;;;;;;5049884;28;19979;-57
2022/12/15 14:54:23;;;;;;;;;;;;;;;;;;5021206;28;19913;-58
2022/12/15 14:56:49;;;;;;;;;;;;;;;;;;5046501;28;20281;-58
2022/12/15 14:59:15;;;;;;;;;;;;;;;;;;5046670;28;19924;-57
2022/12/15 15:01:41;;;;;;;;;;;;;;;;;;5052589;28;19912;-58
2022/12/15 15:04:06;;;;;;;;;;;;;;;;;;5052175;28;19920;-58
2022/12/15 15:06:32;;;;;;;;;;;;;;;;;;5049269;28;19935;-58
2022/12/15 15:08:58;;;;;;;;;;;;;;;;;;5052141;28;20301;-57
2022/12/15 15:11:28;;;;;;;;;;;;;;;;;;5046589;28;20315;-59
2022/12/15 15:13:54;;;;;;;;;;;;;;;;;;5046532;28;19923;-54
2022/12/15 15:16:19;;;;;;;;;;;;;;;;;;5050333;28;19923;-57
2022/12/15 15:18:45;;;;;;;;;;;;;;;;;;5051251;28;19919;-55
2022/12/15 15:21:12;;;;;;;;;;;;;;;;;;5052539;28;19960;-55
2022/12/15 15:23:38;;;;;;;;;;;;;;;;;;5052379;28;20339;-57
2022/12/15 15:26:04;;;;;;;;;;;;;;;;;;5052591;28;20012;-56
2022/12/15 15:28:29;;;;;;;;;;;;;;;;;;5049823;28;20000;-55
2022/12/15 15:30:56;;;;;;;;;;;;;;;;;;5042087;28;19956;-58
2022/12/15 15:33:22;;;;;;;;;;;;;;;;;;5042113;28;19913;-54
2022/12/15 15:35:48;;;;;;;;;;;;;;;;;;5028460;28;19917;-56
2022/12/15 15:38:14;;;;;;;;;;;;;;;;;;5052068;28;20369;-54
2022/12/15 15:40:40;;;;;;;;;;;;;;;;;;5047605;28;20268;-54
2022/12/15 15:43:06;;;;;;;;;;;;;;;;;;5052373;28;19912;-56
2022/12/15 15:45:32;;;;;;;;;;;;;;;;;;5043633;28;19936;-55
2022/12/15 15:47:58;;;;;;;;;;;;;;;;;;5047023;28;19917;-56
2022/12/15 15:50:24;;;;;;;;;;;;;;;;;;5049406;28;19924;-56
2022/12/15 15:52:50;;;;;;;;;;;;;;;;;;5047945;28;19913;-54
2022/12/15 15:55:16;;;;;;;;;;;;;;;;;;5045949;28;19920;-52
2022/12/15 15:57:42;;;;;;;;;;;;;;;;;;5025393;28;19920;-55
2022/12/15 16:00:09;;;;;;;;;;;;;;;;;;5042371;28;19913;-56
2022/12/15 16:02:35;;;;;;;;;;;;;;;;;;5024679;28;19987;-54
2022/12/15 16:05:01;;;;;;;;;;;;;;;;;;5040807;28;19996;-53
2022/12/15 16:07:27;;;;;;;;;;;;;;;;;;5051043;28;19920;-56
2022/12/15 16:09:53;;;;;;;;;;;;;;;;;;5022216;28;19922;-55
2022/12/15 16:12:19;;;;;;;;;;;;;;;;;;5040030;28;19908;-55
2022/12/15 16:14:45;;;;;;;;;;;;;;;;;;5052048;28;20015;-50
2022/12/15 16:17:11;;;;;;;;;;;;;;;;;;5051851;28;19913;-54
2022/12/15 16:19:37;;;;;;;;;;;;;;;;;;5033960;28;19908;-55
2022/12/15 16:22:03;;;;;;;;;;;;;;;;;;5035130;28;19936;-55
2022/12/15 16:24:29;;;;;;;;;;;;;;;;;;5034624;28;19945;-57
2022/12/15 16:26:55;;;;;;;;;;;;;;;;;;5041663;28;19956;-55
2022/12/15 16:29:21;;;;;;;;;;;;;;;;;;5040224;28;19971;-56
2022/12/15 16:31:47;;;;;;;;;;;;;;;;;;5042224;28;19909;-55
2022/12/15 16:34:15;;;;;;;;;;;;;;;;;;5041400;28;20394;-54
2022/12/15 16:36:41;;;;;;;;;;;;;;;;;;5051693;28;20400;-56
2022/12/15 16:39:07;;;;;;;;;;;;;;;;;;5051711;28;19908;-57
2022/12/15 16:41:33;;;;;;;;;;;;;;;;;;5054063;28;20272;-55
2022/12/15 16:43:59;;;;;;;;;;;;;;;;;;5055588;28;19915;-54
2022/12/15 16:46:24;;;;;;;;;;;;;;;;;;5047679;28;20377;-57
2022/12/15 16:48:50;;;;;;;;;;;;;;;;;;5035488;28;19916;-56
2022/12/15 16:51:16;;;;;;;;;;;;;;;;;;5035611;28;19910;-54
2022/12/15 16:53:42;;;;;;;;;;;;;;;;;;5028044;28;19919;-56
2022/12/15 16:56:08;;;;;;;;;;;;;;;;;;5054912;28;19916;-56
2022/12/15 16:58:34;;;;;;;;;;;;;;;;;;5054835;28;19917;-56
2022/12/15 17:01:00;;;;;;;;;;;;;;;;;;5055201;28;20304;-57
2022/12/15 17:03:26;;;;;;;;;;;;;;;;;;5054445;28;20563;-52
2022/12/15 17:05:52;;;;;;;;;;;;;;;;;;5055153;28;19952;-54
2022/12/15 17:08:18;;;;;;;;;;;;;;;;;;5053325;28;20000;-54
2022/12/15 17:10:44;;;;;;;;;;;;;;;;;;5045751;28;19959;-56
2022/12/15 17:13:10;;;;;;;;;;;;;;;;;;5053628;28;19913;-57
2022/12/15 17:15:38;;;;;;;;;;;;;;;;;;5053522;28;20422;-54
2022/12/15 17:18:04;;;;;;;;;;;;;;;;;;5054630;28;19916;-56
2022/12/15 17:20:30;;;;;;;;;;;;;;;;;;5048255;28;19919;-56
2022/12/15 17:22:56;;;;;;;;;;;;;;;;;;5045397;28;19927;-57
2022/12/15 17:25:23;;;;;;;;;;;;;;;;;;5050171;28;19912;-56
2022/12/15 17:27:48;;;;;;;;;;;;;;;;;;5046726;28;19944;-53
2022/12/15 17:30:14;;;;;;;;;;;;;;;;;;5043258;28;19997;-57
2022/12/15 17:32:40;;;;;;;;;;;;;;;;;;5043527;28;19913;-57
2022/12/15 17:35:06;;;;;;;;;;;;;;;;;;5043997;28;19967;-53
2022/12/15 17:37:32;;;;;;;;;;;;;;;;;;5048455;28;19917;-56
2022/12/15 17:39:58;;;;;;;;;;;;;;;;;;5054271;28;20377;-57
2022/12/15 17:42:24;;;;;;;;;;;;;;;;;;5053678;28;20026;-53
2022/12/15 17:44:50;;;;;;;;;;;;;;;;;;5054217;28;20406;-57
2022/12/15 17:47:16;;;;;;;;;;;;;;;;;;5054079;28;19913;-57
2022/12/15 17:49:42;;;;;;;;;;;;;;;;;;5036448;28;19932;-55
2022/12/15 17:52:08;;;;;;;;;;;;;;;;;;5049199;28;19920;-55
2022/12/15 17:54:34;;;;;;;;;;;;;;;;;;5050586;28;19920;-55
2022/12/15 17:57:00;;;;;;;;;;;;;;;;;;5053695;28;19917;-57
2022/12/15 17:59:26;;;;;;;;;;;;;;;;;;5022649;28;19936;-57
2022/12/15 18:01:55;;;;;;;;;;;;;;;;;;5053654;28;20281;-56
2022/12/15 18:04:21;;;;;;;;;;;;;;;;;;5053930;28;19916;-57
2022/12/15 18:06:47;;;;;;;;;;;;;;;;;;5053811;28;19913;-57
2022/12/15 18:09:13;;;;;;;;;;;;;;;;;;5053450;28;19958;-57
2022/12/15 18:11:39;;;;;;;;;;;;;;;;;;5053140;28;20004;-57
2022/12/15 18:14:05;;;;;;;;;;;;;;;;;;5047281;28;19917;-57
2022/12/15 18:16:31;;;;;;;;;;;;;;;;;;5047503;28;19917;-56
2022/12/15 18:18:58;;;;;;;;;;;;;;;;;;5052182;28;19913;-57
2022/12/15 18:21:25;;;;;;;;;;;;;;;;;;5053564;28;19952;-57
2022/12/15 18:23:51;;;;;;;;;;;;;;;;;;5051996;28;19913;-57
2022/12/15 18:26:17;;;;;;;;;;;;;;;;;;5045261;28;19917;-56
2022/12/15 18:28:43;;;;;;;;;;;;;;;;;;5053557;28;20331;-57
2022/12/15 18:31:09;;;;;;;;;;;;;;;;;;5035307;28;19913;-57
2022/12/15 18:33:35;;;;;;;;;;;;;;;;;;5052498;28;19917;-57
2022/12/15 18:36:01;;;;;;;;;;;;;;;;;;5052848;28;20404;-56
2022/12/15 18:38:27;;;;;;;;;;;;;;;;;;5051642;28;19923;-54
2022/12/15 18:40:53;;;;;;;;;;;;;;;;;;5031617;28;19913;-57
2022/12/15 18:43:19;;;;;;;;;;;;;;;;;;5053423;28;20011;-56
2022/12/15 18:45:45;;;;;;;;;;;;;;;;;;5031506;28;19960;-57
2022/12/15 18:48:11;;;;;;;;;;;;;;;;;;5049403;28;20017;-56
2022/12/15 18:50:37;;;;;;;;;;;;;;;;;;5042558;28;20385;-56
2022/12/15 18:53:03;;;;;;;;;;;;;;;;;;5031423;28;20016;-56
2022/12/15 18:55:29;;;;;;;;;;;;;;;;;;5049168;28;19913;-56
2022/12/15 18:57:57;;;;;;;;;;;;;;;;;;5047344;28;20262;-56